Pablo, Montana
Current Conditions -  °F | °C
As of 9:53 AM on Thursday 23 Oct 2014 (Local Time) from KMSO Reporting Station
Overcast Overcast  
Wind Chill: 52°   Ceiling: 7000
Heat Index: 52°   Visibility: 10mi
Dew Point: 43°   Wind: 9mph
Humidity: 71%   Direction: 90°E
Pressure: 29.89"   Gusts: NA
Location:  47.59°N, 114.12°W
Report Text: KMSO 231553Z 09008KT 10SM SCT050 BKN070 OVC110 11/06 A2989 RMK AO2 RAE44 SLP121 P0000 T01110061
Loading
Personal Weather Stations






























Interactive Weather Map
Tropical Storm Tracking
New forecast layout! Learn more

10-Day Weather Forecast

Advertisements
Track Severe Weather on mobile